Boo Sonier — WDG3281 — position and weather

sailwx.info

Track history (hours):
 
Tides and Currents Weather Stations Pressure Air Temp Water Temp Dewpoint Dewpoint Depression Visibility Wind Speed Wind Dir Waves Ship Positions

Boo Sonier

Owner: LeBeouf Bros. Towing, LLC, Houma, LA. More information available from US FCC via Universal Licensing System and Coast Guard Vessel Documentation Center.

Last reported at 2015-Jul-04 17:17 UTC. Time now 2015-Jul-04 20:48 UTC.
Position N 29°53' W 090°05'.

Length 21 m.

Type: Tug. MMSI: 367524420.

Date/timePositionNaut miles runAvg speedWind from/ knotsBaromVisibWave heightAir tempDewpointWater temp
2015-Jul-04 17:17N 29°53' W 090°05'1 0.4
2015-Jul-04 13:21N 29°55' W 090°05'4 2.3
2015-Jul-04 11:25N 29°58' W 090°02'0 0.4
2015-Jul-04 10:15N 29°59' W 090°01'2 0.3
2015-Jul-04 02:04N 29°60' W 089°59'  
2015-Jun-28 11:27N 30°01' W 089°54'  
2015-Jun-26 05:29N 29°35' W 090°22'3 3.1
2015-Jun-26 04:30N 29°33' W 090°25'4 4.6
2015-Jun-26 03:33N 29°34' W 090°30'5 4.6
2015-Jun-26 02:33N 29°35' W 090°35'1 0.8
2015-Jun-26 01:32N 29°35' W 090°36'1 1.5
2015-Jun-26 00:33N 29°35' W 090°37'5 4.7
2015-Jun-25 23:34N 29°36' W 090°43'3 3.0
2015-Jun-25 22:33N 29°34' W 090°44'0 0.2
2015-Jun-25 21:34N 29°34' W 090°45'5 5.4
2015-Jun-25 20:33N 29°32' W 090°50'  
Track history (hours):
 
Tides and Currents Weather Stations Pressure Air Temp Water Temp Dewpoint Dewpoint Depression Visibility Wind Speed Wind Dir Waves Ship Positions

Boo Sonier

Owner: LeBeouf Bros. Towing, LLC, Houma, LA. More information available from US FCC via Universal Licensing System and Coast Guard Vessel Documentation Center.

Last reported at 2015-Jul-04 17:17 UTC. Time now 2015-Jul-04 20:48 UTC.
Position N 29°53' W 090°05'.

Length 21 m.

Type: Tug. MMSI: 367524420.

Date/timePositionNaut miles runAvg speedWind from/ knotsBaromVisibWave heightAir tempDewpointWater temp
2015-Jul-04 17:17N 29°53' W 090°05'1 0.4
2015-Jul-04 13:21N 29°55' W 090°05'4 2.3
2015-Jul-04 11:25N 29°58' W 090°02'0 0.4
2015-Jul-04 10:15N 29°59' W 090°01'2 0.3
2015-Jul-04 02:04N 29°60' W 089°59'  
2015-Jun-28 11:27N 30°01' W 089°54'  
2015-Jun-26 05:29N 29°35' W 090°22'3 3.1
2015-Jun-26 04:30N 29°33' W 090°25'4 4.6
2015-Jun-26 03:33N 29°34' W 090°30'5 4.6
2015-Jun-26 02:33N 29°35' W 090°35'1 0.8
2015-Jun-26 01:32N 29°35' W 090°36'1 1.5
2015-Jun-26 00:33N 29°35' W 090°37'5 4.7
2015-Jun-25 23:34N 29°36' W 090°43'3 3.0
2015-Jun-25 22:33N 29°34' W 090°44'0 0.2
2015-Jun-25 21:34N 29°34' W 090°45'5 5.4
2015-Jun-25 20:33N 29°32' W 090°50'  

Dump ship's entire track history